sensor_id;sensor_type;location;lat;lon;timestamp;temperature;humidity
26164;DHT22;13914;48.178;11.716;2022-11-21T00:00:55;4.60;98.60
26164;DHT22;13914;48.178;11.716;2022-11-21T00:03:21;4.50;98.60
26164;DHT22;13914;48.178;11.716;2022-11-21T00:05:48;4.50;98.60
26164;DHT22;13914;48.178;11.716;2022-11-21T00:08:15;4.50;98.50
26164;DHT22;13914;48.178;11.716;2022-11-21T00:10:42;4.50;98.60
26164;DHT22;13914;48.178;11.716;2022-11-21T00:13:15;4.50;98.60
26164;DHT22;13914;48.178;11.716;2022-11-21T00:15:42;4.60;98.70
26164;DHT22;13914;48.178;11.716;2022-11-21T00:18:08;4.50;98.50
26164;DHT22;13914;48.178;11.716;2022-11-21T00:20:36;4.50;98.50
26164;DHT22;13914;48.178;11.716;2022-11-21T00:23:01;4.50;98.50
26164;DHT22;13914;48.178;11.716;2022-11-21T00:25:27;4.50;98.50
26164;DHT22;13914;48.178;11.716;2022-11-21T00:27:53;4.60;98.70
26164;DHT22;13914;48.178;11.716;2022-11-21T00:30:19;4.50;98.50
26164;DHT22;13914;48.178;11.716;2022-11-21T00:32:45;4.60;98.50
26164;DHT22;13914;48.178;11.716;2022-11-21T00:35:10;4.60;98.40
26164;DHT22;13914;48.178;11.716;2022-11-21T00:37:36;4.60;98.40
26164;DHT22;13914;48.178;11.716;2022-11-21T00:40:02;4.60;98.40
26164;DHT22;13914;48.178;11.716;2022-11-21T00:42:28;4.60;98.40
26164;DHT22;13914;48.178;11.716;2022-11-21T00:44:54;4.60;98.40
26164;DHT22;13914;48.178;11.716;2022-11-21T00:47:19;4.60;98.60
26164;DHT22;13914;48.178;11.716;2022-11-21T00:49:45;4.50;98.50
26164;DHT22;13914;48.178;11.716;2022-11-21T00:52:10;4.60;98.50
26164;DHT22;13914;48.178;11.716;2022-11-21T00:54:36;4.60;98.50
26164;DHT22;13914;48.178;11.716;2022-11-21T00:57:02;4.50;98.40
26164;DHT22;13914;48.178;11.716;2022-11-21T00:59:28;4.60;98.40
26164;DHT22;13914;48.178;11.716;2022-11-21T01:01:54;4.60;98.40
26164;DHT22;13914;48.178;11.716;2022-11-21T01:04:22;4.60;98.50
26164;DHT22;13914;48.178;11.716;2022-11-21T01:06:48;4.50;98.50
26164;DHT22;13914;48.178;11.716;2022-11-21T01:09:14;4.60;98.50
26164;DHT22;13914;48.178;11.716;2022-11-21T01:11:39;4.60;98.50
26164;DHT22;13914;48.178;11.716;2022-11-21T01:14:05;4.60;98.50
26164;DHT22;13914;48.178;11.716;2022-11-21T01:16:31;4.60;98.50
26164;DHT22;13914;48.178;11.716;2022-11-21T01:18:57;4.60;98.50
26164;DHT22;13914;48.178;11.716;2022-11-21T01:21:24;4.60;98.50
26164;DHT22;13914;48.178;11.716;2022-11-21T01:23:51;4.60;98.40
26164;DHT22;13914;48.178;11.716;2022-11-21T01:26:18;4.60;98.40
26164;DHT22;13914;48.178;11.716;2022-11-21T01:28:46;4.60;98.40
26164;DHT22;13914;48.178;11.716;2022-11-21T01:31:12;4.60;98.50
26164;DHT22;13914;48.178;11.716;2022-11-21T01:33:40;4.50;98.60
26164;DHT22;13914;48.178;11.716;2022-11-21T01:36:11;4.60;98.60
26164;DHT22;13914;48.178;11.716;2022-11-21T01:38:48;4.50;98.70
26164;DHT22;13914;48.178;11.716;2022-11-21T01:41:17;4.60;98.50
26164;DHT22;13914;48.178;11.716;2022-11-21T01:43:44;4.50;98.70
26164;DHT22;13914;48.178;11.716;2022-11-21T01:46:18;4.60;98.70
26164;DHT22;13914;48.178;11.716;2022-11-21T01:51:42;4.60;98.60
26164;DHT22;13914;48.178;11.716;2022-11-21T01:59:15;4.60;98.70
26164;DHT22;13914;48.178;11.716;2022-11-21T02:01:44;4.60;98.70
26164;DHT22;13914;48.178;11.716;2022-11-21T02:04:11;4.60;98.60
26164;DHT22;13914;48.178;11.716;2022-11-21T02:06:36;4.60;98.70
26164;DHT22;13914;48.178;11.716;2022-11-21T02:09:02;4.60;99.10
26164;DHT22;13914;48.178;11.716;2022-11-21T02:14:05;4.60;98.70
26164;DHT22;13914;48.178;11.716;2022-11-21T02:16:31;4.60;98.70
26164;DHT22;13914;48.178;11.716;2022-11-21T02:18:57;4.60;98.60
26164;DHT22;13914;48.178;11.716;2022-11-21T02:26:29;4.60;98.50
26164;DHT22;13914;48.178;11.716;2022-11-21T02:28:55;4.70;98.50
26164;DHT22;13914;48.178;11.716;2022-11-21T02:31:21;4.70;98.50
26164;DHT22;13914;48.178;11.716;2022-11-21T02:33:46;4.70;98.40
26164;DHT22;13914;48.178;11.716;2022-11-21T02:39:01;4.70;98.30
26164;DHT22;13914;48.178;11.716;2022-11-21T02:41:31;4.70;98.30
26164;DHT22;13914;48.178;11.716;2022-11-21T02:44:11;4.70;98.30
26164;DHT22;13914;48.178;11.716;2022-11-21T02:46:46;4.70;98.30
26164;DHT22;13914;48.178;11.716;2022-11-21T02:52:06;4.70;98.30
26164;DHT22;13914;48.178;11.716;2022-11-21T02:54:34;4.70;98.20
26164;DHT22;13914;48.178;11.716;2022-11-21T02:57:07;4.70;98.30
26164;DHT22;13914;48.178;11.716;2022-11-21T02:59:33;4.60;98.30
26164;DHT22;13914;48.178;11.716;2022-11-21T03:01:59;4.70;98.30
26164;DHT22;13914;48.178;11.716;2022-11-21T03:04:25;4.60;98.20
26164;DHT22;13914;48.178;11.716;2022-11-21T03:06:51;4.60;98.20
26164;DHT22;13914;48.178;11.716;2022-11-21T03:09:17;4.60;98.10
26164;DHT22;13914;48.178;11.716;2022-11-21T03:11:42;4.60;98.20
26164;DHT22;13914;48.178;11.716;2022-11-21T03:14:11;4.60;98.60
26164;DHT22;13914;48.178;11.716;2022-11-21T03:16:36;4.60;98.30
26164;DHT22;13914;48.178;11.716;2022-11-21T03:19:02;4.60;98.20
26164;DHT22;13914;48.178;11.716;2022-11-21T03:21:28;4.60;98.20
26164;DHT22;13914;48.178;11.716;2022-11-21T03:23:54;4.60;98.20
26164;DHT22;13914;48.178;11.716;2022-11-21T03:26:19;4.60;98.20
26164;DHT22;13914;48.178;11.716;2022-11-21T03:28:45;4.60;98.20
26164;DHT22;13914;48.178;11.716;2022-11-21T03:31:10;4.60;98.20
26164;DHT22;13914;48.178;11.716;2022-11-21T03:33:36;4.60;98.20
26164;DHT22;13914;48.178;11.716;2022-11-21T03:36:02;4.60;98.20
26164;DHT22;13914;48.178;11.716;2022-11-21T03:38:28;4.60;98.20
26164;DHT22;13914;48.178;11.716;2022-11-21T03:40:53;4.60;98.10
26164;DHT22;13914;48.178;11.716;2022-11-21T03:43:19;4.60;98.10
26164;DHT22;13914;48.178;11.716;2022-11-21T03:45:45;4.60;98.10
26164;DHT22;13914;48.178;11.716;2022-11-21T03:48:12;4.50;98.00
26164;DHT22;13914;48.178;11.716;2022-11-21T03:50:41;4.50;98.00
26164;DHT22;13914;48.178;11.716;2022-11-21T03:53:07;4.60;98.00
26164;DHT22;13914;48.178;11.716;2022-11-21T03:55:33;4.60;98.00
26164;DHT22;13914;48.178;11.716;2022-11-21T03:57:59;4.50;98.00
26164;DHT22;13914;48.178;11.716;2022-11-21T04:00:24;4.50;97.90
26164;DHT22;13914;48.178;11.716;2022-11-21T04:02:50;4.50;97.90
26164;DHT22;13914;48.178;11.716;2022-11-21T04:05:16;4.50;97.90
26164;DHT22;13914;48.178;11.716;2022-11-21T04:07:41;4.50;97.90
26164;DHT22;13914;48.178;11.716;2022-11-21T04:10:07;4.50;97.90
26164;DHT22;13914;48.178;11.716;2022-11-21T04:12:33;4.50;97.90
26164;DHT22;13914;48.178;11.716;2022-11-21T04:14:59;4.50;98.00
26164;DHT22;13914;48.178;11.716;2022-11-21T04:17:24;4.50;97.90
26164;DHT22;13914;48.178;11.716;2022-11-21T04:19:50;4.50;97.90
26164;DHT22;13914;48.178;11.716;2022-11-21T04:22:21;4.50;98.00
26164;DHT22;13914;48.178;11.716;2022-11-21T04:24:46;4.50;98.00
26164;DHT22;13914;48.178;11.716;2022-11-21T04:27:12;4.50;98.00
26164;DHT22;13914;48.178;11.716;2022-11-21T04:29:38;4.50;98.00
26164;DHT22;13914;48.178;11.716;2022-11-21T04:32:03;4.50;98.00
26164;DHT22;13914;48.178;11.716;2022-11-21T04:34:29;4.50;98.00
26164;DHT22;13914;48.178;11.716;2022-11-21T04:36:55;4.50;98.10
26164;DHT22;13914;48.178;11.716;2022-11-21T04:39:20;4.50;98.00
26164;DHT22;13914;48.178;11.716;2022-11-21T04:41:46;4.50;98.00
26164;DHT22;13914;48.178;11.716;2022-11-21T04:44:12;4.50;98.00
26164;DHT22;13914;48.178;11.716;2022-11-21T04:46:38;4.50;98.10
26164;DHT22;13914;48.178;11.716;2022-11-21T04:49:03;4.50;98.00
26164;DHT22;13914;48.178;11.716;2022-11-21T04:51:29;4.50;98.00
26164;DHT22;13914;48.178;11.716;2022-11-21T04:53:54;4.50;98.10
26164;DHT22;13914;48.178;11.716;2022-11-21T04:56:20;4.50;98.20
26164;DHT22;13914;48.178;11.716;2022-11-21T04:58:46;4.50;98.10
26164;DHT22;13914;48.178;11.716;2022-11-21T05:01:12;4.50;98.10
26164;DHT22;13914;48.178;11.716;2022-11-21T05:03:37;4.60;98.10
26164;DHT22;13914;48.178;11.716;2022-11-21T05:06:03;4.60;98.70
26164;DHT22;13914;48.178;11.716;2022-11-21T05:08:29;4.60;98.30
26164;DHT22;13914;48.178;11.716;2022-11-21T05:10:55;4.60;98.40
26164;DHT22;13914;48.178;11.716;2022-11-21T05:13:39;4.60;98.40
26164;DHT22;13914;48.178;11.716;2022-11-21T05:16:05;4.60;98.50
26164;DHT22;13914;48.178;11.716;2022-11-21T05:18:31;4.50;98.60
26164;DHT22;13914;48.178;11.716;2022-11-21T05:20:57;4.60;98.70
26164;DHT22;13914;48.178;11.716;2022-11-21T05:23:22;4.50;98.50
26164;DHT22;13914;48.178;11.716;2022-11-21T05:25:48;4.60;98.50
26164;DHT22;13914;48.178;11.716;2022-11-21T05:28:14;4.60;98.50
26164;DHT22;13914;48.178;11.716;2022-11-21T05:30:40;4.60;98.40
26164;DHT22;13914;48.178;11.716;2022-11-21T05:33:05;4.60;98.40
26164;DHT22;13914;48.178;11.716;2022-11-21T05:35:31;4.60;98.30
26164;DHT22;13914;48.178;11.716;2022-11-21T05:38:00;4.60;98.40
26164;DHT22;13914;48.178;11.716;2022-11-21T05:40:25;4.60;98.30
26164;DHT22;13914;48.178;11.716;2022-11-21T05:42:51;4.60;98.30
26164;DHT22;13914;48.178;11.716;2022-11-21T05:45:36;4.60;98.40
26164;DHT22;13914;48.178;11.716;2022-11-21T05:48:01;4.60;98.90
26164;DHT22;13914;48.178;11.716;2022-11-21T05:50:32;4.60;98.60
26164;DHT22;13914;48.178;11.716;2022-11-21T05:53:04;4.60;98.50
26164;DHT22;13914;48.178;11.716;2022-11-21T05:55:30;4.60;98.50
26164;DHT22;13914;48.178;11.716;2022-11-21T05:57:58;4.60;98.50
26164;DHT22;13914;48.178;11.716;2022-11-21T06:00:26;4.60;98.50
26164;DHT22;13914;48.178;11.716;2022-11-21T06:02:53;4.60;98.50
26164;DHT22;13914;48.178;11.716;2022-11-21T06:05:40;4.60;98.60
26164;DHT22;13914;48.178;11.716;2022-11-21T06:08:06;4.60;98.60
26164;DHT22;13914;48.178;11.716;2022-11-21T06:10:32;4.60;98.60
26164;DHT22;13914;48.178;11.716;2022-11-21T06:12:58;4.60;98.50
26164;DHT22;13914;48.178;11.716;2022-11-21T06:15:25;4.60;98.60
26164;DHT22;13914;48.178;11.716;2022-11-21T06:17:51;4.60;98.60
26164;DHT22;13914;48.178;11.716;2022-11-21T06:20:17;4.60;98.50
26164;DHT22;13914;48.178;11.716;2022-11-21T06:22:42;4.60;98.50
26164;DHT22;13914;48.178;11.716;2022-11-21T06:25:08;4.60;98.50
26164;DHT22;13914;48.178;11.716;2022-11-21T06:27:34;4.60;98.50
26164;DHT22;13914;48.178;11.716;2022-11-21T06:29:59;4.60;98.40
26164;DHT22;13914;48.178;11.716;2022-11-21T06:32:25;4.60;98.40
26164;DHT22;13914;48.178;11.716;2022-11-21T06:34:51;4.60;98.60
26164;DHT22;13914;48.178;11.716;2022-11-21T06:37:16;4.60;98.60
26164;DHT22;13914;48.178;11.716;2022-11-21T06:39:45;4.60;98.60
26164;DHT22;13914;48.178;11.716;2022-11-21T06:42:11;4.60;98.60
26164;DHT22;13914;48.178;11.716;2022-11-21T06:44:37;4.60;98.60
26164;DHT22;13914;48.178;11.716;2022-11-21T06:47:02;4.60;98.70
26164;DHT22;13914;48.178;11.716;2022-11-21T06:49:28;4.60;98.80
26164;DHT22;13914;48.178;11.716;2022-11-21T06:51:54;4.60;98.70
26164;DHT22;13914;48.178;11.716;2022-11-21T06:54:20;4.60;98.60
26164;DHT22;13914;48.178;11.716;2022-11-21T06:56:45;4.60;98.70
26164;DHT22;13914;48.178;11.716;2022-11-21T06:59:11;4.60;98.70
26164;DHT22;13914;48.178;11.716;2022-11-21T07:01:37;4.60;98.60
26164;DHT22;13914;48.178;11.716;2022-11-21T07:04:05;4.60;98.60
26164;DHT22;13914;48.178;11.716;2022-11-21T07:06:33;4.60;98.60
26164;DHT22;13914;48.178;11.716;2022-11-21T07:08:59;4.70;98.60
26164;DHT22;13914;48.178;11.716;2022-11-21T07:11:24;4.60;98.60
26164;DHT22;13914;48.178;11.716;2022-11-21T07:13:50;4.70;98.60
26164;DHT22;13914;48.178;11.716;2022-11-21T07:16:16;4.70;98.60
26164;DHT22;13914;48.178;11.716;2022-11-21T07:18:41;4.70;98.50
26164;DHT22;13914;48.178;11.716;2022-11-21T07:21:08;4.70;98.60
26164;DHT22;13914;48.178;11.716;2022-11-21T07:23:34;4.70;98.60
26164;DHT22;13914;48.178;11.716;2022-11-21T07:26:04;4.70;98.60
26164;DHT22;13914;48.178;11.716;2022-11-21T07:28:31;4.70;98.60
26164;DHT22;13914;48.178;11.716;2022-11-21T07:30:57;4.80;99.00
26164;DHT22;13914;48.178;11.716;2022-11-21T07:33:24;4.80;98.60
26164;DHT22;13914;48.178;11.716;2022-11-21T07:35:50;4.80;98.50
26164;DHT22;13914;48.178;11.716;2022-11-21T07:38:16;4.80;98.40
26164;DHT22;13914;48.178;11.716;2022-11-21T07:40:42;4.80;98.40
26164;DHT22;13914;48.178;11.716;2022-11-21T07:43:08;4.80;98.40
26164;DHT22;13914;48.178;11.716;2022-11-21T07:45:35;4.80;98.40
26164;DHT22;13914;48.178;11.716;2022-11-21T07:48:02;4.80;98.30
26164;DHT22;13914;48.178;11.716;2022-11-21T07:50:29;4.90;98.30
26164;DHT22;13914;48.178;11.716;2022-11-21T07:52:56;4.90;98.30
26164;DHT22;13914;48.178;11.716;2022-11-21T07:55:25;4.90;98.30
26164;DHT22;13914;48.178;11.716;2022-11-21T08:00:26;4.90;98.20
26164;DHT22;13914;48.178;11.716;2022-11-21T08:02:53;4.90;98.10
26164;DHT22;13914;48.178;11.716;2022-11-21T08:05:19;4.90;98.10
26164;DHT22;13914;48.178;11.716;2022-11-21T08:07:45;5.00;98.20
26164;DHT22;13914;48.178;11.716;2022-11-21T08:10:11;5.00;98.10
26164;DHT22;13914;48.178;11.716;2022-11-21T08:12:37;5.00;98.10
26164;DHT22;13914;48.178;11.716;2022-11-21T08:15:03;5.10;98.00
26164;DHT22;13914;48.178;11.716;2022-11-21T08:17:31;5.10;98.00
26164;DHT22;13914;48.178;11.716;2022-11-21T08:19:57;5.10;98.00
26164;DHT22;13914;48.178;11.716;2022-11-21T08:22:24;5.10;98.10
26164;DHT22;13914;48.178;11.716;2022-11-21T08:24:51;5.10;98.10
26164;DHT22;13914;48.178;11.716;2022-11-21T08:27:19;5.10;98.10
26164;DHT22;13914;48.178;11.716;2022-11-21T08:29:45;5.20;98.30
26164;DHT22;13914;48.178;11.716;2022-11-21T08:32:12;5.20;98.20
26164;DHT22;13914;48.178;11.716;2022-11-21T08:34:38;5.30;98.20
26164;DHT22;13914;48.178;11.716;2022-11-21T08:37:04;5.30;98.20
26164;DHT22;13914;48.178;11.716;2022-11-21T08:39:29;5.30;98.20
26164;DHT22;13914;48.178;11.716;2022-11-21T08:41:55;5.30;98.10
26164;DHT22;13914;48.178;11.716;2022-11-21T08:44:28;5.40;98.10
26164;DHT22;13914;48.178;11.716;2022-11-21T08:46:57;5.50;98.20
26164;DHT22;13914;48.178;11.716;2022-11-21T08:49:24;5.50;98.10
26164;DHT22;13914;48.178;11.716;2022-11-21T08:51:50;5.50;98.10
26164;DHT22;13914;48.178;11.716;2022-11-21T08:54:16;5.60;98.20
26164;DHT22;13914;48.178;11.716;2022-11-21T08:56:43;5.60;98.20
26164;DHT22;13914;48.178;11.716;2022-11-21T08:59:09;5.70;98.10
26164;DHT22;13914;48.178;11.716;2022-11-21T09:01:35;5.70;98.00
26164;DHT22;13914;48.178;11.716;2022-11-21T09:04:02;5.80;98.00
26164;DHT22;13914;48.178;11.716;2022-11-21T09:06:28;5.80;98.00
26164;DHT22;13914;48.178;11.716;2022-11-21T09:08:53;5.90;97.90
26164;DHT22;13914;48.178;11.716;2022-11-21T09:11:19;5.90;97.90
26164;DHT22;13914;48.178;11.716;2022-11-21T09:13:45;5.90;97.80
26164;DHT22;13914;48.178;11.716;2022-11-21T09:16:33;5.90;97.70
26164;DHT22;13914;48.178;11.716;2022-11-21T09:19:17;6.00;97.70
26164;DHT22;13914;48.178;11.716;2022-11-21T09:21:44;6.00;97.50
26164;DHT22;13914;48.178;11.716;2022-11-21T09:24:09;6.10;97.60
26164;DHT22;13914;48.178;11.716;2022-11-21T09:26:35;6.10;97.50
26164;DHT22;13914;48.178;11.716;2022-11-21T09:29:01;6.10;97.50
26164;DHT22;13914;48.178;11.716;2022-11-21T09:31:27;6.20;97.50
26164;DHT22;13914;48.178;11.716;2022-11-21T09:33:53;6.30;97.50
26164;DHT22;13914;48.178;11.716;2022-11-21T09:36:19;6.30;97.50
26164;DHT22;13914;48.178;11.716;2022-11-21T09:38:45;6.40;97.30
26164;DHT22;13914;48.178;11.716;2022-11-21T09:47:22;6.50;97.30
26164;DHT22;13914;48.178;11.716;2022-11-21T09:52:40;6.60;97.30
26164;DHT22;13914;48.178;11.716;2022-11-21T09:57:59;6.70;97.20
26164;DHT22;13914;48.178;11.716;2022-11-21T10:00:27;6.80;97.10
26164;DHT22;13914;48.178;11.716;2022-11-21T10:02:53;6.90;97.00
26164;DHT22;13914;48.178;11.716;2022-11-21T10:05:25;6.90;96.80
26164;DHT22;13914;48.178;11.716;2022-11-21T10:07:59;6.90;96.90
26164;DHT22;13914;48.178;11.716;2022-11-21T10:13:27;7.10;96.60
26164;DHT22;13914;48.178;11.716;2022-11-21T10:16:04;7.10;96.90
26164;DHT22;13914;48.178;11.716;2022-11-21T10:24:11;7.10;96.70
26164;DHT22;13914;48.178;11.716;2022-11-21T10:26:49;7.10;96.50
26164;DHT22;13914;48.178;11.716;2022-11-21T10:32:02;7.10;96.90
26164;DHT22;13914;48.178;11.716;2022-11-21T10:34:34;7.20;96.30
26164;DHT22;13914;48.178;11.716;2022-11-21T10:37:02;7.20;96.80
26164;DHT22;13914;48.178;11.716;2022-11-21T10:42:14;7.20;96.40
26164;DHT22;13914;48.178;11.716;2022-11-21T10:44:46;7.20;96.50
26164;DHT22;13914;48.178;11.716;2022-11-21T10:47:31;7.20;96.30
26164;DHT22;13914;48.178;11.716;2022-11-21T10:52:24;7.30;96.20
26164;DHT22;13914;48.178;11.716;2022-11-21T10:55:05;7.30;96.00
26164;DHT22;13914;48.178;11.716;2022-11-21T10:57:36;7.30;95.70
26164;DHT22;13914;48.178;11.716;2022-11-21T11:02:57;7.40;96.30
26164;DHT22;13914;48.178;11.716;2022-11-21T11:05:25;7.40;96.00
26164;DHT22;13914;48.178;11.716;2022-11-21T11:08:08;7.50;96.00
26164;DHT22;13914;48.178;11.716;2022-11-21T11:10:42;7.50;95.70
26164;DHT22;13914;48.178;11.716;2022-11-21T11:16:01;7.70;96.00
26164;DHT22;13914;48.178;11.716;2022-11-21T11:18:29;7.80;96.20
26164;DHT22;13914;48.178;11.716;2022-11-21T11:23:43;7.90;96.20
26164;DHT22;13914;48.178;11.716;2022-11-21T11:26:26;8.00;96.10
26164;DHT22;13914;48.178;11.716;2022-11-21T11:29:03;8.10;96.30
26164;DHT22;13914;48.178;11.716;2022-11-21T11:31:39;8.20;96.20
26164;DHT22;13914;48.178;11.716;2022-11-21T11:34:07;8.20;96.10
26164;DHT22;13914;48.178;11.716;2022-11-21T11:36:37;8.30;95.90
26164;DHT22;13914;48.178;11.716;2022-11-21T11:39:09;8.40;95.70
26164;DHT22;13914;48.178;11.716;2022-11-21T11:41:54;8.50;95.30
26164;DHT22;13914;48.178;11.716;2022-11-21T11:47:53;8.60;94.80
26164;DHT22;13914;48.178;11.716;2022-11-21T11:50:25;8.70;94.30
26164;DHT22;13914;48.178;11.716;2022-11-21T11:53:10;8.80;95.60
26164;DHT22;13914;48.178;11.716;2022-11-21T12:03:42;8.90;94.40
26164;DHT22;13914;48.178;11.716;2022-11-21T12:06:14;8.90;94.70
26164;DHT22;13914;48.178;11.716;2022-11-21T12:14:35;8.80;94.30
26164;DHT22;13914;48.178;11.716;2022-11-21T12:17:45;8.80;94.90
26164;DHT22;13914;48.178;11.716;2022-11-21T12:23:44;8.90;94.80
26164;DHT22;13914;48.178;11.716;2022-11-21T12:26:14;8.90;94.70
26164;DHT22;13914;48.178;11.716;2022-11-21T12:56:31;8.70;95.30
26164;DHT22;13914;48.178;11.716;2022-11-21T12:59:11;8.70;95.30
26164;DHT22;13914;48.178;11.716;2022-11-21T13:04:05;8.60;95.20
26164;DHT22;13914;48.178;11.716;2022-11-21T13:06:38;8.60;95.30
26164;DHT22;13914;48.178;11.716;2022-11-21T13:09:06;8.60;95.30
26164;DHT22;13914;48.178;11.716;2022-11-21T13:11:43;8.70;95.40
26164;DHT22;13914;48.178;11.716;2022-11-21T13:23:02;8.60;95.40
26164;DHT22;13914;48.178;11.716;2022-11-21T13:30:48;8.60;95.60
26164;DHT22;13914;48.178;11.716;2022-11-21T13:36:04;8.50;95.50
26164;DHT22;13914;48.178;11.716;2022-11-21T13:46:59;8.50;95.70
26164;DHT22;13914;48.178;11.716;2022-11-21T13:52:20;8.50;95.90
26164;DHT22;13914;48.178;11.716;2022-11-21T13:55:03;8.50;95.90
26164;DHT22;13914;48.178;11.716;2022-11-21T14:00:23;8.50;95.90
26164;DHT22;13914;48.178;11.716;2022-11-21T14:08:28;8.50;96.00
26164;DHT22;13914;48.178;11.716;2022-11-21T14:10:54;8.40;95.80
26164;DHT22;13914;48.178;11.716;2022-11-21T14:13:27;8.40;95.90
26164;DHT22;13914;48.178;11.716;2022-11-21T14:18:43;8.40;95.90
26164;DHT22;13914;48.178;11.716;2022-11-21T14:21:23;8.40;95.80
26164;DHT22;13914;48.178;11.716;2022-11-21T14:23:52;8.40;95.90
26164;DHT22;13914;48.178;11.716;2022-11-21T14:26:19;8.40;95.90
26164;DHT22;13914;48.178;11.716;2022-11-21T14:28:45;8.30;95.90
26164;DHT22;13914;48.178;11.716;2022-11-21T14:31:12;8.40;96.00
26164;DHT22;13914;48.178;11.716;2022-11-21T14:33:45;8.40;96.00
26164;DHT22;13914;48.178;11.716;2022-11-21T14:36:15;8.40;96.10
26164;DHT22;13914;48.178;11.716;2022-11-21T14:38:49;8.40;96.10
26164;DHT22;13914;48.178;11.716;2022-11-21T14:46:22;8.40;96.20
26164;DHT22;13914;48.178;11.716;2022-11-21T14:48:49;8.40;96.20
26164;DHT22;13914;48.178;11.716;2022-11-21T14:51:17;8.40;96.30
26164;DHT22;13914;48.178;11.716;2022-11-21T14:53:44;8.40;96.20
26164;DHT22;13914;48.178;11.716;2022-11-21T14:56:18;8.40;96.20
26164;DHT22;13914;48.178;11.716;2022-11-21T14:58:46;8.30;96.20
26164;DHT22;13914;48.178;11.716;2022-11-21T15:01:18;8.30;96.20
26164;DHT22;13914;48.178;11.716;2022-11-21T15:03:55;8.30;96.10
26164;DHT22;13914;48.178;11.716;2022-11-21T15:06:22;8.30;96.20
26164;DHT22;13914;48.178;11.716;2022-11-21T15:08:48;8.20;96.10
26164;DHT22;13914;48.178;11.716;2022-11-21T15:11:15;8.20;96.20
26164;DHT22;13914;48.178;11.716;2022-11-21T15:13:42;8.20;96.20
26164;DHT22;13914;48.178;11.716;2022-11-21T15:16:09;8.20;96.20
26164;DHT22;13914;48.178;11.716;2022-11-21T15:18:35;8.10;96.10
26164;DHT22;13914;48.178;11.716;2022-11-21T15:21:05;8.10;96.10
26164;DHT22;13914;48.178;11.716;2022-11-21T15:23:34;8.10;96.10
26164;DHT22;13914;48.178;11.716;2022-11-21T15:26:02;8.00;96.20
26164;DHT22;13914;48.178;11.716;2022-11-21T15:28:29;8.00;96.10
26164;DHT22;13914;48.178;11.716;2022-11-21T15:33:59;7.90;96.10
26164;DHT22;13914;48.178;11.716;2022-11-21T15:36:25;7.90;96.10
26164;DHT22;13914;48.178;11.716;2022-11-21T15:38:53;7.80;96.10
26164;DHT22;13914;48.178;11.716;2022-11-21T15:43:54;7.80;96.10
26164;DHT22;13914;48.178;11.716;2022-11-21T15:46:39;7.70;96.10
26164;DHT22;13914;48.178;11.716;2022-11-21T15:49:08;7.70;96.20
26164;DHT22;13914;48.178;11.716;2022-11-21T15:51:39;7.60;96.20
26164;DHT22;13914;48.178;11.716;2022-11-21T15:54:13;7.60;96.10
26164;DHT22;13914;48.178;11.716;2022-11-21T15:56:41;7.50;96.20
26164;DHT22;13914;48.178;11.716;2022-11-21T15:59:07;7.40;96.30
26164;DHT22;13914;48.178;11.716;2022-11-21T16:01:33;7.40;96.20
26164;DHT22;13914;48.178;11.716;2022-11-21T16:03:59;7.30;96.40
26164;DHT22;13914;48.178;11.716;2022-11-21T16:06:26;7.30;96.30
26164;DHT22;13914;48.178;11.716;2022-11-21T16:08:53;7.20;96.30
26164;DHT22;13914;48.178;11.716;2022-11-21T16:13:52;7.20;96.40
26164;DHT22;13914;48.178;11.716;2022-11-21T16:16:23;7.10;96.40
26164;DHT22;13914;48.178;11.716;2022-11-21T16:18:50;7.10;96.60
26164;DHT22;13914;48.178;11.716;2022-11-21T16:21:16;7.00;96.50
26164;DHT22;13914;48.178;11.716;2022-11-21T16:23:42;7.00;96.50
26164;DHT22;13914;48.178;11.716;2022-11-21T16:26:08;6.90;96.60
26164;DHT22;13914;48.178;11.716;2022-11-21T16:28:35;6.90;96.60
26164;DHT22;13914;48.178;11.716;2022-11-21T16:31:02;6.80;96.50
26164;DHT22;13914;48.178;11.716;2022-11-21T16:33:29;6.80;96.60
26164;DHT22;13914;48.178;11.716;2022-11-21T16:35:55;6.70;96.60
26164;DHT22;13914;48.178;11.716;2022-11-21T16:38:22;6.70;96.60
26164;DHT22;13914;48.178;11.716;2022-11-21T16:41:07;6.70;96.60
26164;DHT22;13914;48.178;11.716;2022-11-21T16:43:36;6.60;96.60
26164;DHT22;13914;48.178;11.716;2022-11-21T16:46:05;6.50;96.60
26164;DHT22;13914;48.178;11.716;2022-11-21T16:48:32;6.50;96.60
26164;DHT22;13914;48.178;11.716;2022-11-21T16:51:11;6.40;96.60
26164;DHT22;13914;48.178;11.716;2022-11-21T16:53:38;6.40;96.70
26164;DHT22;13914;48.178;11.716;2022-11-21T16:56:05;6.30;96.60
26164;DHT22;13914;48.178;11.716;2022-11-21T16:58:31;6.30;96.70
26164;DHT22;13914;48.178;11.716;2022-11-21T17:00:57;6.20;96.70
26164;DHT22;13914;48.178;11.716;2022-11-21T17:03:22;6.20;96.80
26164;DHT22;13914;48.178;11.716;2022-11-21T17:05:57;6.20;96.70
26164;DHT22;13914;48.178;11.716;2022-11-21T17:08:23;6.10;96.80
26164;DHT22;13914;48.178;11.716;2022-11-21T17:10:49;6.10;96.80
26164;DHT22;13914;48.178;11.716;2022-11-21T17:13:15;6.10;96.80
26164;DHT22;13914;48.178;11.716;2022-11-21T17:15:41;6.00;96.70
26164;DHT22;13914;48.178;11.716;2022-11-21T17:18:06;6.00;96.80
26164;DHT22;13914;48.178;11.716;2022-11-21T17:20:32;5.90;96.80
26164;DHT22;13914;48.178;11.716;2022-11-21T17:22:57;5.90;96.80
26164;DHT22;13914;48.178;11.716;2022-11-21T17:25:23;5.90;96.80
26164;DHT22;13914;48.178;11.716;2022-11-21T17:27:49;5.90;96.80
26164;DHT22;13914;48.178;11.716;2022-11-21T17:30:15;5.80;96.80
26164;DHT22;13914;48.178;11.716;2022-11-21T17:32:40;5.70;97.20
26164;DHT22;13914;48.178;11.716;2022-11-21T17:35:09;5.70;96.80
26164;DHT22;13914;48.178;11.716;2022-11-21T17:37:35;5.70;96.90
26164;DHT22;13914;48.178;11.716;2022-11-21T17:40:01;5.60;96.80
26164;DHT22;13914;48.178;11.716;2022-11-21T17:42:33;5.60;96.80
26164;DHT22;13914;48.178;11.716;2022-11-21T17:44:58;5.60;96.80
26164;DHT22;13914;48.178;11.716;2022-11-21T17:47:24;5.50;96.90
26164;DHT22;13914;48.178;11.716;2022-11-21T17:49:50;5.50;96.80
26164;DHT22;13914;48.178;11.716;2022-11-21T17:52:15;5.40;96.90
26164;DHT22;13914;48.178;11.716;2022-11-21T17:54:41;5.40;96.90
26164;DHT22;13914;48.178;11.716;2022-11-21T17:57:07;5.40;96.80
26164;DHT22;13914;48.178;11.716;2022-11-21T17:59:32;5.30;96.90
26164;DHT22;13914;48.178;11.716;2022-11-21T18:01:59;5.30;96.90
26164;DHT22;13914;48.178;11.716;2022-11-21T18:04:27;5.30;97.00
26164;DHT22;13914;48.178;11.716;2022-11-21T18:06:53;5.20;97.00
26164;DHT22;13914;48.178;11.716;2022-11-21T18:09:19;5.20;97.00
26164;DHT22;13914;48.178;11.716;2022-11-21T18:11:44;5.20;96.90
26164;DHT22;13914;48.178;11.716;2022-11-21T18:14:10;5.10;97.00
26164;DHT22;13914;48.178;11.716;2022-11-21T18:16:40;5.10;97.10
26164;DHT22;13914;48.178;11.716;2022-11-21T18:19:06;5.00;97.10